Time;durP1;ratioP1;P1;durP2;ratioP2;P2;SDS_P1;SDS_P2;PMS_P1;PMS_P2;Temp;Humidity;BMP_temperature;BMP_pressure;BME280_temperature;BME280_humidity;BME280_pressure;Samples;Min_cycle;Max_cycle;Signal;HPM_P1;HPM_P2
2022/01/27 00:03:06;;;;;;;;;;;3.30;99.90;;;;;;5053374;28;19925;-80
2022/01/27 00:05:33;;;;;;;;;;;3.30;99.90;;;;;;5095266;28;19940;-80
2022/01/27 00:08:10;;;;;;;;;;;3.20;99.90;;;;;;4966704;28;19927;-82
2022/01/27 00:10:50;;;;;;;;;;;3.20;99.90;;;;;;4749214;29;19932;-82
2022/01/27 00:13:20;;;;;;;;;;;3.20;99.90;;;;;;4392117;31;20022;-84
2022/01/27 00:20:28;;;;;;;;;;;3.10;99.90;;;;;;5173836;27;19926;-83
2022/01/27 00:22:54;;;;;;;;;;;3.10;99.90;;;;;;5099510;27;19924;-82
2022/01/27 00:25:21;;;;;;;;;;;3.10;99.90;;;;;;5100521;28;19947;-82
2022/01/27 00:27:48;;;;;;;;;;;3.10;99.90;;;;;;5118323;28;19923;-83
2022/01/27 00:30:15;;;;;;;;;;;3.10;99.90;;;;;;5009483;28;19926;-81
2022/01/27 00:32:42;;;;;;;;;;;3.10;99.90;;;;;;4845427;29;19937;-82
2022/01/27 00:35:09;;;;;;;;;;;3.10;99.90;;;;;;4623330;30;19937;-83
2022/01/27 00:42:42;;;;;;;;;;;3.20;99.90;;;;;;5170051;27;19926;-81
2022/01/27 00:45:09;;;;;;;;;;;3.20;99.90;;;;;;5117726;27;19924;-83
2022/01/27 00:47:36;;;;;;;;;;;3.10;99.90;;;;;;5116301;27;19931;-85
2022/01/27 00:50:03;;;;;;;;;;;3.20;99.90;;;;;;5129068;27;19997;-85
2022/01/27 00:52:36;;;;;;;;;;;3.20;99.90;;;;;;5065086;28;19926;-81
2022/01/27 00:55:03;;;;;;;;;;;3.30;99.90;;;;;;4804205;29;19943;-83
2022/01/27 00:57:40;;;;;;;;;;;3.30;99.90;;;;;;4581576;30;19936;-84
2022/01/27 01:05:30;;;;;;;;;;;3.30;99.90;;;;;;5174029;27;19925;-83
2022/01/27 01:08:06;;;;;;;;;;;3.20;99.90;;;;;;5091363;28;19924;-84
2022/01/27 01:11:16;;;;;;;;;;;3.20;99.90;;;;;;5051580;28;19932;-82
2022/01/27 01:16:55;;;;;;;;;;;3.20;99.90;;;;;;4831319;29;20002;-83
2022/01/27 01:19:33;;;;;;;;;;;3.30;99.90;;;;;;4657305;30;19942;-81
2022/01/27 01:31:09;;;;;;;;;;;3.30;99.90;;;;;;5080655;28;19982;-83
2022/01/27 01:33:39;;;;;;;;;;;3.30;99.90;;;;;;5022972;28;19949;-86
2022/01/27 01:36:14;;;;;;;;;;;3.30;99.90;;;;;;4911416;28;19928;-87
2022/01/27 01:38:42;;;;;;;;;;;3.30;99.90;;;;;;4738566;29;19956;-82
2022/01/27 01:41:09;;;;;;;;;;;3.30;99.90;;;;;;4391021;31;19939;-84
2022/01/27 01:48:39;;;;;;;;;;;3.40;99.90;;;;;;5173618;27;19926;-83
2022/01/27 01:51:05;;;;;;;;;;;3.40;99.90;;;;;;5112704;27;19924;-86
2022/01/27 01:53:32;;;;;;;;;;;3.40;99.90;;;;;;5115540;28;19939;-82
2022/01/27 01:55:58;;;;;;;;;;;3.40;99.90;;;;;;5098563;28;19931;-82
2022/01/27 01:58:25;;;;;;;;;;;3.40;99.90;;;;;;5059078;28;19926;-81
2022/01/27 02:00:52;;;;;;;;;;;3.40;99.90;;;;;;4888722;29;19930;-81
2022/01/27 02:03:18;;;;;;;;;;;3.40;99.90;;;;;;4777877;29;19931;-83
2022/01/27 02:19:10;;;;;;;;;;;3.50;99.90;;;;;;4998714;28;19926;-84
2022/01/27 02:21:43;;;;;;;;;;;3.50;99.90;;;;;;4941039;28;19928;-88
2022/01/27 02:24:10;;;;;;;;;;;3.60;99.90;;;;;;4752447;29;19931;-84
2022/01/27 02:26:36;;;;;;;;;;;3.50;99.90;;;;;;4572457;30;19936;-85
2022/01/27 02:34:08;;;;;;;;;;;3.50;99.90;;;;;;5161828;27;19930;-82
2022/01/27 02:36:35;;;;;;;;;;;3.60;99.90;;;;;;5124834;27;20008;-89
2022/01/27 02:39:03;;;;;;;;;;;3.60;99.90;;;;;;5116095;27;19938;-86
2022/01/27 02:41:31;;;;;;;;;;;3.50;99.90;;;;;;5062946;28;19925;-81
2022/01/27 02:43:58;;;;;;;;;;;3.60;99.90;;;;;;4996866;28;19941;-83
2022/01/27 02:46:26;;;;;;;;;;;3.50;99.90;;;;;;4898299;28;19930;-85
2022/01/27 02:48:52;;;;;;;;;;;3.50;99.90;;;;;;4654289;30;19934;-83
2022/01/27 02:55:51;;;;;;;;;;;3.60;99.90;;;;;;5164090;27;19926;-84
2022/01/27 02:58:18;;;;;;;;;;;3.60;99.90;;;;;;5106598;28;19923;-82
2022/01/27 03:00:45;;;;;;;;;;;3.60;99.90;;;;;;5074086;28;19938;-81
2022/01/27 03:03:11;;;;;;;;;;;3.60;99.90;;;;;;5076084;28;19932;-82
2022/01/27 03:05:38;;;;;;;;;;;3.60;99.90;;;;;;5007718;28;19926;-85
2022/01/27 03:08:04;;;;;;;;;;;3.60;99.90;;;;;;4974624;28;19927;-82
2022/01/27 03:10:33;;;;;;;;;;;3.60;99.90;;;;;;4843670;29;19929;-86
2022/01/27 03:13:01;;;;;;;;;;;3.70;99.90;;;;;;4670312;30;19952;-83
2022/01/27 03:20:32;;;;;;;;;;;3.70;99.90;;;;;;5168612;27;19926;-82
2022/01/27 03:22:59;;;;;;;;;;;3.70;99.90;;;;;;5101601;27;19923;-81
2022/01/27 03:25:26;;;;;;;;;;;3.70;99.90;;;;;;5108615;28;19931;-80
2022/01/27 03:27:52;;;;;;;;;;;3.60;99.90;;;;;;5101060;28;19924;-80
2022/01/27 03:30:19;;;;;;;;;;;3.60;99.90;;;;;;5009273;28;19934;-80
2022/01/27 03:32:46;;;;;;;;;;;3.70;99.90;;;;;;4845541;29;19934;-80
2022/01/27 03:35:13;;;;;;;;;;;3.60;99.90;;;;;;4627859;30;19966;-83
2022/01/27 03:42:51;;;;;;;;;;;3.70;99.90;;;;;;5154597;27;19926;-81
2022/01/27 03:45:17;;;;;;;;;;;3.60;99.90;;;;;;5116018;27;19924;-80
2022/01/27 03:47:44;;;;;;;;;;;3.70;99.90;;;;;;5092304;28;19924;-81
2022/01/27 03:50:10;;;;;;;;;;;3.70;99.90;;;;;;5062228;28;19931;-86
2022/01/27 03:52:37;;;;;;;;;;;3.70;99.90;;;;;;5014915;28;19953;-85
2022/01/27 03:55:04;;;;;;;;;;;3.60;99.90;;;;;;4884263;29;19935;-85
2022/01/27 03:57:31;;;;;;;;;;;3.70;99.90;;;;;;4759905;29;19932;-87
2022/01/27 04:04:42;;;;;;;;;;;3.70;99.90;;;;;;5162851;27;19925;-79
2022/01/27 04:07:09;;;;;;;;;;;3.70;99.90;;;;;;5108404;27;19923;-83
2022/01/27 04:09:35;;;;;;;;;;;3.70;99.90;;;;;;5107775;28;19939;-79
2022/01/27 04:12:02;;;;;;;;;;;3.70;99.90;;;;;;5072640;28;19929;-82
2022/01/27 04:14:29;;;;;;;;;;;3.70;99.90;;;;;;5006694;28;19926;-84
2022/01/27 04:16:55;;;;;;;;;;;3.70;99.90;;;;;;4876995;28;19930;-83
2022/01/27 04:19:22;;;;;;;;;;;3.70;99.90;;;;;;4716005;29;19932;-79
2022/01/27 04:26:57;;;;;;;;;;;3.80;99.90;;;;;;5190777;27;19929;-79
2022/01/27 04:29:24;;;;;;;;;;;3.80;99.90;;;;;;5151751;27;19924;-82
2022/01/27 04:31:51;;;;;;;;;;;3.80;99.90;;;;;;5084556;28;19924;-81
2022/01/27 04:34:18;;;;;;;;;;;3.80;99.90;;;;;;5012489;28;19925;-82
2022/01/27 04:36:45;;;;;;;;;;;3.80;99.90;;;;;;4996636;28;19926;-82
2022/01/27 04:39:17;;;;;;;;;;;3.90;99.90;;;;;;4880232;29;19930;-82
2022/01/27 04:41:49;;;;;;;;;;;3.90;99.90;;;;;;4655344;29;19934;-82
2022/01/27 04:49:21;;;;;;;;;;;4.10;99.90;;;;;;5141810;27;19926;-81
2022/01/27 04:51:49;;;;;;;;;;;4.10;99.90;;;;;;5094164;28;19932;-79
2022/01/27 04:54:20;;;;;;;;;;;4.10;99.90;;;;;;5076532;28;19939;-79
2022/01/27 04:56:47;;;;;;;;;;;4.10;99.90;;;;;;5064535;28;19931;-82
2022/01/27 04:59:18;;;;;;;;;;;4.20;99.90;;;;;;5060748;28;19929;-82
2022/01/27 05:01:49;;;;;;;;;;;4.10;99.90;;;;;;4984204;28;19930;-84
2022/01/27 05:04:18;;;;;;;;;;;4.20;99.90;;;;;;4855602;28;19946;-81
2022/01/27 05:06:48;;;;;;;;;;;4.10;99.90;;;;;;4616368;30;19995;-83
2022/01/27 05:14:09;;;;;;;;;;;4.10;99.90;;;;;;5174160;27;19926;-79
2022/01/27 05:16:36;;;;;;;;;;;4.10;99.90;;;;;;5104548;27;19931;-82
2022/01/27 05:19:04;;;;;;;;;;;4.10;99.90;;;;;;5075495;28;19925;-81
2022/01/27 05:21:32;;;;;;;;;;;4.10;99.90;;;;;;5077124;28;19936;-81
2022/01/27 05:23:59;;;;;;;;;;;4.10;99.90;;;;;;4993701;28;19934;-82
2022/01/27 05:26:26;;;;;;;;;;;4.10;99.90;;;;;;4870534;29;19935;-81
2022/01/27 05:28:52;;;;;;;;;;;4.10;99.90;;;;;;4689815;29;19934;-80
2022/01/27 05:36:26;;;;;;;;;;;4.20;99.90;;;;;;5175991;27;19941;-84
2022/01/27 05:38:52;;;;;;;;;;;4.10;99.90;;;;;;5138529;27;19923;-80
2022/01/27 05:41:19;;;;;;;;;;;4.10;99.90;;;;;;5116869;28;19939;-81
2022/01/27 05:43:46;;;;;;;;;;;4.10;99.90;;;;;;5086418;28;19924;-82
2022/01/27 05:46:12;;;;;;;;;;;4.10;99.90;;;;;;5056190;28;19935;-80
2022/01/27 05:48:39;;;;;;;;;;;4.10;99.90;;;;;;4946749;28;19928;-84
2022/01/27 05:51:05;;;;;;;;;;;4.10;99.90;;;;;;4746396;29;19938;-82
2022/01/27 05:58:38;;;;;;;;;;;4.10;99.90;;;;;;5175583;27;19925;-83
2022/01/27 06:01:05;;;;;;;;;;;4.10;99.90;;;;;;5133749;27;19923;-84
2022/01/27 06:03:31;;;;;;;;;;;4.00;99.90;;;;;;5114080;27;19939;-80
2022/01/27 06:05:58;;;;;;;;;;;4.00;99.90;;;;;;5105933;28;19924;-83
2022/01/27 06:08:25;;;;;;;;;;;4.00;99.90;;;;;;5023830;28;19953;-80
2022/01/27 06:10:52;;;;;;;;;;;3.90;99.90;;;;;;4931803;28;19928;-80
2022/01/27 06:13:18;;;;;;;;;;;3.90;99.90;;;;;;4674960;29;19945;-80
2022/01/27 06:20:50;;;;;;;;;;;3.80;99.90;;;;;;5186704;27;19925;-83
2022/01/27 06:23:17;;;;;;;;;;;3.70;99.90;;;;;;5119746;27;19924;-84
2022/01/27 06:25:44;;;;;;;;;;;3.70;99.90;;;;;;5116458;27;19938;-84
2022/01/27 06:28:10;;;;;;;;;;;3.70;99.90;;;;;;5109128;27;19932;-82
2022/01/27 06:30:37;;;;;;;;;;;3.60;99.90;;;;;;4989370;28;19928;-85
2022/01/27 06:33:04;;;;;;;;;;;3.70;99.90;;;;;;4832742;29;19931;-82
2022/01/27 06:35:31;;;;;;;;;;;3.70;99.90;;;;;;4536526;30;19937;-83
2022/01/27 06:42:19;;;;;;;;;;;3.80;99.90;;;;;;5179201;27;19926;-80
2022/01/27 06:44:46;;;;;;;;;;;3.80;99.90;;;;;;5136607;27;19918;-80
2022/01/27 06:47:13;;;;;;;;;;;3.80;99.90;;;;;;5127815;28;19950;-82
2022/01/27 06:49:39;;;;;;;;;;;3.80;99.90;;;;;;5044878;28;19932;-81
2022/01/27 06:52:07;;;;;;;;;;;3.80;99.90;;;;;;4945290;28;19935;-82
2022/01/27 06:54:33;;;;;;;;;;;3.80;99.90;;;;;;4756794;29;19932;-84
2022/01/27 06:57:01;;;;;;;;;;;3.80;99.90;;;;;;4651558;30;19940;-82
2022/01/27 07:04:28;;;;;;;;;;;3.80;99.90;;;;;;5223801;27;19925;-80
2022/01/27 07:06:55;;;;;;;;;;;3.90;99.90;;;;;;5165072;27;19980;-80
2022/01/27 07:09:21;;;;;;;;;;;3.80;99.90;;;;;;5152194;27;19931;-81
2022/01/27 07:11:48;;;;;;;;;;;3.90;99.90;;;;;;5058535;28;19931;-81
2022/01/27 07:14:14;;;;;;;;;;;3.90;99.90;;;;;;5011068;28;19933;-83
2022/01/27 07:16:42;;;;;;;;;;;3.90;99.90;;;;;;4946003;28;19929;-84
2022/01/27 07:19:09;;;;;;;;;;;3.90;99.90;;;;;;4659570;29;19935;-84
2022/01/27 07:26:40;;;;;;;;;;;3.80;99.90;;;;;;5177671;27;19925;-83
2022/01/27 07:29:07;;;;;;;;;;;3.80;99.90;;;;;;5130205;27;19930;-82
2022/01/27 07:31:33;;;;;;;;;;;3.80;99.90;;;;;;5095893;28;19932;-83
2022/01/27 07:34:00;;;;;;;;;;;3.80;99.90;;;;;;5053772;28;19924;-84
2022/01/27 07:36:28;;;;;;;;;;;3.80;99.90;;;;;;5002040;28;19938;-82
2022/01/27 07:38:54;;;;;;;;;;;3.80;99.90;;;;;;4834148;29;19929;-79
2022/01/27 07:41:21;;;;;;;;;;;3.80;99.90;;;;;;4657049;29;19940;-78
2022/01/27 07:49:06;;;;;;;;;;;3.90;99.90;;;;;;5173968;27;19926;-84
2022/01/27 07:51:33;;;;;;;;;;;3.90;99.90;;;;;;5128907;27;19937;-82
2022/01/27 07:54:00;;;;;;;;;;;3.90;99.90;;;;;;5114697;28;19939;-80
2022/01/27 07:56:26;;;;;;;;;;;3.90;99.90;;;;;;5090205;28;19924;-81
2022/01/27 07:58:53;;;;;;;;;;;3.80;99.90;;;;;;5014691;28;19934;-83
2022/01/27 08:01:20;;;;;;;;;;;3.80;99.90;;;;;;4842785;29;19931;-80
2022/01/27 08:03:47;;;;;;;;;;;3.80;99.90;;;;;;4506370;30;19938;-82
2022/01/27 08:11:19;;;;;;;;;;;3.70;99.90;;;;;;5172127;27;19925;-80
2022/01/27 08:13:46;;;;;;;;;;;3.60;99.90;;;;;;5127959;27;19931;-82
2022/01/27 08:16:12;;;;;;;;;;;3.70;99.90;;;;;;5128759;27;19945;-80
2022/01/27 08:18:39;;;;;;;;;;;3.70;99.90;;;;;;5099141;28;19931;-81
2022/01/27 08:21:06;;;;;;;;;;;3.80;99.90;;;;;;4989231;28;19927;-82
2022/01/27 08:23:32;;;;;;;;;;;3.80;99.90;;;;;;4767711;29;19933;-84
2022/01/27 08:26:04;;;;;;;;;;;3.80;99.90;;;;;;4468819;30;19945;-81
2022/01/27 08:31:05;;;;;;;;;;;3.80;99.90;;;;;;5169568;27;19926;-81
2022/01/27 08:33:33;;;;;;;;;;;3.80;99.90;;;;;;5115818;27;19924;-80
2022/01/27 08:36:00;;;;;;;;;;;3.80;99.90;;;;;;5082499;28;19932;-81
2022/01/27 08:38:27;;;;;;;;;;;3.80;99.90;;;;;;5078790;28;19931;-82
2022/01/27 08:40:54;;;;;;;;;;;3.80;99.90;;;;;;5005986;28;19934;-84
2022/01/27 08:43:21;;;;;;;;;;;3.80;99.90;;;;;;4832206;29;19930;-83
2022/01/27 08:45:47;;;;;;;;;;;3.70;99.90;;;;;;4565090;30;19944;-83
2022/01/27 08:53:14;;;;;;;;;;;3.70;99.90;;;;;;5174294;27;19925;-81
2022/01/27 08:55:44;;;;;;;;;;;3.70;99.90;;;;;;5137208;27;19922;-85
2022/01/27 08:58:10;;;;;;;;;;;3.70;99.90;;;;;;5136353;27;19923;-84
2022/01/27 09:00:37;;;;;;;;;;;3.70;99.90;;;;;;5099743;28;19924;-81
2022/01/27 09:03:04;;;;;;;;;;;3.80;99.90;;;;;;5015437;28;19930;-81
2022/01/27 09:05:31;;;;;;;;;;;3.80;99.90;;;;;;4946278;28;19934;-79
2022/01/27 09:07:58;;;;;;;;;;;3.90;99.90;;;;;;4750090;29;19932;-83
2022/01/27 09:15:29;;;;;;;;;;;4.00;99.90;;;;;;5176682;27;19925;-82
2022/01/27 09:17:58;;;;;;;;;;;4.00;99.90;;;;;;5137698;27;19927;-82
2022/01/27 09:20:25;;;;;;;;;;;4.00;99.90;;;;;;5137177;27;19923;-85
2022/01/27 09:22:53;;;;;;;;;;;4.00;99.90;;;;;;5108675;28;19924;-82
2022/01/27 09:25:22;;;;;;;;;;;4.10;99.90;;;;;;5024450;28;19926;-83
2022/01/27 09:27:49;;;;;;;;;;;4.10;99.90;;;;;;4814337;29;19953;-82
2022/01/27 09:30:17;;;;;;;;;;;4.00;99.90;;;;;;4575496;30;19935;-82
2022/01/27 09:37:56;;;;;;;;;;;4.00;99.90;;;;;;5179107;27;19942;-84
2022/01/27 09:40:23;;;;;;;;;;;4.00;99.90;;;;;;5137651;27;19930;-84
2022/01/27 09:42:52;;;;;;;;;;;4.00;99.90;;;;;;5106572;28;19931;-83
2022/01/27 09:45:19;;;;;;;;;;;4.00;99.90;;;;;;5082711;28;19939;-80
2022/01/27 09:47:54;;;;;;;;;;;3.90;99.90;;;;;;5019473;28;19927;-81
2022/01/27 09:50:35;;;;;;;;;;;3.80;99.90;;;;;;4838074;29;19930;-83
2022/01/27 09:55:53;;;;;;;;;;;3.80;99.90;;;;;;5173902;27;19925;-81
2022/01/27 09:58:20;;;;;;;;;;;3.70;99.90;;;;;;5135863;27;19923;-84
2022/01/27 10:00:47;;;;;;;;;;;3.70;99.90;;;;;;5114584;27;19931;-83
2022/01/27 10:03:14;;;;;;;;;;;3.60;99.90;;;;;;5088020;28;19931;-84
2022/01/27 10:05:41;;;;;;;;;;;3.60;99.90;;;;;;4968876;28;19939;-83
2022/01/27 10:08:11;;;;;;;;;;;3.40;99.90;;;;;;4726561;29;19933;-82
2022/01/27 10:10:39;;;;;;;;;;;3.40;99.90;;;;;;4499980;30;19945;-84
2022/01/27 10:18:16;;;;;;;;;;;3.40;99.90;;;;;;5176910;27;19929;-84
2022/01/27 10:20:44;;;;;;;;;;;3.40;99.90;;;;;;5140104;27;19933;-79
2022/01/27 10:23:12;;;;;;;;;;;3.30;99.90;;;;;;5093506;28;19924;-81
2022/01/27 10:25:46;;;;;;;;;;;3.30;99.90;;;;;;5081773;28;20158;-81
2022/01/27 10:28:28;;;;;;;;;;;3.30;99.90;;;;;;4999989;28;19928;-80
2022/01/27 10:31:02;;;;;;;;;;;3.20;99.90;;;;;;4884939;29;19936;-80
2022/01/27 10:33:40;;;;;;;;;;;3.30;99.90;;;;;;4642285;29;19957;-85
2022/01/27 10:41:21;;;;;;;;;;;3.20;99.90;;;;;;5168247;27;19926;-81
2022/01/27 10:43:48;;;;;;;;;;;3.20;99.90;;;;;;5123339;27;19924;-81
2022/01/27 10:46:21;;;;;;;;;;;3.20;99.90;;;;;;5113067;28;19931;-82
2022/01/27 10:48:52;;;;;;;;;;;3.20;99.90;;;;;;5058027;28;19925;-81
2022/01/27 10:51:24;;;;;;;;;;;3.30;99.90;;;;;;4963696;28;19927;-84
2022/01/27 10:53:55;;;;;;;;;;;3.30;99.90;;;;;;4742731;29;19938;-84
2022/01/27 10:56:23;;;;;;;;;;;3.30;99.90;;;;;;4488115;30;19938;-81
2022/01/27 11:03:56;;;;;;;;;;;3.30;99.90;;;;;;5173858;27;19937;-81
2022/01/27 11:06:24;;;;;;;;;;;3.30;99.90;;;;;;5141180;27;19930;-81
2022/01/27 11:08:54;;;;;;;;;;;3.30;99.90;;;;;;5133377;27;19930;-82
2022/01/27 11:11:22;;;;;;;;;;;3.30;99.90;;;;;;5084913;28;19932;-83
2022/01/27 11:13:49;;;;;;;;;;;3.30;99.90;;;;;;4966623;28;19937;-83
2022/01/27 11:16:18;;;;;;;;;;;3.30;99.90;;;;;;4773834;29;19938;-82
2022/01/27 11:18:46;;;;;;;;;;;3.40;99.90;;;;;;4553492;30;19957;-80
2022/01/27 11:24:04;;;;;;;;;;;3.40;99.90;;;;;;5174656;27;19926;-84
2022/01/27 11:26:32;;;;;;;;;;;3.40;99.90;;;;;;5116203;27;19923;-81
2022/01/27 11:28:59;;;;;;;;;;;3.40;99.90;;;;;;5113639;27;19924;-85
2022/01/27 11:31:39;;;;;;;;;;;3.40;99.90;;;;;;5082433;28;19924;-81
2022/01/27 11:34:10;;;;;;;;;;;3.50;99.90;;;;;;4939467;28;19928;-81
2022/01/27 11:36:38;;;;;;;;;;;3.40;99.90;;;;;;4748320;29;19931;-83
2022/01/27 11:39:09;;;;;;;;;;;3.40;99.90;;;;;;4567230;30;19936;-82
2022/01/27 11:47:00;;;;;;;;;;;3.50;99.90;;;;;;5153462;27;19926;-84
2022/01/27 11:49:46;;;;;;;;;;;3.50;99.90;;;;;;5077532;28;19931;-82
2022/01/27 11:52:20;;;;;;;;;;;3.60;99.90;;;;;;5061778;28;19932;-79
2022/01/27 11:54:46;;;;;;;;;;;3.60;99.90;;;;;;5038901;28;19925;-78
2022/01/27 11:57:28;;;;;;;;;;;3.60;99.90;;;;;;5011223;28;19927;-81
2022/01/27 12:00:07;;;;;;;;;;;3.60;99.90;;;;;;4776474;29;19938;-82
2022/01/27 12:08:25;;;;;;;;;;;3.70;99.90;;;;;;5177735;27;19925;-82
2022/01/27 12:10:55;;;;;;;;;;;3.70;99.90;;;;;;5077120;28;19924;-82
2022/01/27 12:13:44;;;;;;;;;;;3.70;99.90;;;;;;5043680;28;19937;-80
2022/01/27 12:16:11;;;;;;;;;;;3.70;99.90;;;;;;4983117;28;19941;-81
2022/01/27 12:18:38;;;;;;;;;;;3.70;99.90;;;;;;4888030;29;19936;-82
2022/01/27 12:21:19;;;;;;;;;;;3.80;99.90;;;;;;4746106;29;19931;-81
2022/01/27 12:31:50;;;;;;;;;;;3.70;99.90;;;;;;5147601;27;19942;-82
2022/01/27 12:34:17;;;;;;;;;;;3.80;99.90;;;;;;5081921;28;19931;-81
2022/01/27 12:37:02;;;;;;;;;;;3.80;99.90;;;;;;5077732;28;19925;-84
2022/01/27 12:39:30;;;;;;;;;;;3.70;99.90;;;;;;4982948;28;19933;-82
2022/01/27 12:41:59;;;;;;;;;;;3.70;99.90;;;;;;4910039;28;20167;-85
2022/01/27 12:44:28;;;;;;;;;;;3.80;99.90;;;;;;4770211;29;19930;-86
2022/01/27 12:47:03;;;;;;;;;;;3.80;99.90;;;;;;4440856;30;19939;-81
2022/01/27 12:53:58;;;;;;;;;;;3.80;99.90;;;;;;5194972;27;19925;-84
2022/01/27 12:56:25;;;;;;;;;;;3.80;99.90;;;;;;5135974;27;19931;-82
2022/01/27 12:58:52;;;;;;;;;;;3.70;99.90;;;;;;5123634;27;19924;-82
2022/01/27 13:01:19;;;;;;;;;;;3.80;99.90;;;;;;5061399;28;19926;-85
2022/01/27 13:03:58;;;;;;;;;;;3.80;99.90;;;;;;4910940;28;19939;-83
2022/01/27 13:06:28;;;;;;;;;;;3.80;99.90;;;;;;4789563;29;19939;-83
2022/01/27 13:09:09;;;;;;;;;;;3.80;99.90;;;;;;4584059;30;19935;-84
2022/01/27 13:16:43;;;;;;;;;;;4.00;99.90;;;;;;5181112;27;19926;-81
2022/01/27 13:19:20;;;;;;;;;;;4.00;99.90;;;;;;5126784;27;19930;-79
2022/01/27 13:21:51;;;;;;;;;;;4.00;99.90;;;;;;5101492;27;19924;-82
2022/01/27 13:24:19;;;;;;;;;;;4.00;99.90;;;;;;5085851;28;19931;-83
2022/01/27 13:26:46;;;;;;;;;;;4.10;99.90;;;;;;5008269;28;19926;-84
2022/01/27 13:29:13;;;;;;;;;;;4.10;99.90;;;;;;4914833;28;19928;-81
2022/01/27 13:31:40;;;;;;;;;;;4.20;99.90;;;;;;4693915;29;19933;-82
2022/01/27 13:39:35;;;;;;;;;;;4.30;99.90;;;;;;5174507;27;19926;-84
2022/01/27 13:42:05;;;;;;;;;;;4.50;99.90;;;;;;5084917;28;19931;-83
2022/01/27 13:44:32;;;;;;;;;;;4.60;99.90;;;;;;5098364;28;19925;-83
2022/01/27 13:47:02;;;;;;;;;;;4.60;99.90;;;;;;5023726;28;19941;-81
2022/01/27 13:49:32;;;;;;;;;;;4.70;99.90;;;;;;4908910;28;19950;-83
2022/01/27 13:51:59;;;;;;;;;;;4.70;99.90;;;;;;4750633;29;19935;-81
2022/01/27 13:54:35;;;;;;;;;;;4.80;99.90;;;;;;4536990;31;19936;-82
2022/01/27 14:02:13;;;;;;;;;;;5.00;99.90;;;;;;5181966;27;19925;-80
2022/01/27 14:04:43;;;;;;;;;;;5.10;99.90;;;;;;5129442;27;19931;-82
2022/01/27 14:07:10;;;;;;;;;;;5.20;99.90;;;;;;5111493;27;19931;-81
2022/01/27 14:09:40;;;;;;;;;;;5.20;99.90;;;;;;5044801;28;19925;-85
2022/01/27 14:12:07;;;;;;;;;;;5.20;99.90;;;;;;4966242;28;19935;-82
2022/01/27 14:14:45;;;;;;;;;;;5.30;99.90;;;;;;4789411;29;19938;-83
2022/01/27 14:17:20;;;;;;;;;;;5.30;99.90;;;;;;4479433;31;19937;-84
2022/01/27 14:24:58;;;;;;;;;;;5.40;99.90;;;;;;5186013;27;19926;-82
2022/01/27 14:27:31;;;;;;;;;;;5.40;99.90;;;;;;5145437;27;19923;-80
2022/01/27 14:29:58;;;;;;;;;;;5.50;99.90;;;;;;5127222;28;19924;-83
2022/01/27 14:32:25;;;;;;;;;;;5.60;99.90;;;;;;5058890;28;19925;-85
2022/01/27 14:34:51;;;;;;;;;;;5.50;99.90;;;;;;4948333;28;19934;-81
2022/01/27 14:37:18;;;;;;;;;;;5.50;99.90;;;;;;4884632;29;19939;-82
2022/01/27 14:39:46;;;;;;;;;;;5.60;99.90;;;;;;4729627;29;19936;-82
2022/01/27 14:44:53;;;;;;;;;;;5.60;99.90;;;;;;5182786;27;19925;-81
2022/01/27 14:47:20;;;;;;;;;;;5.60;99.90;;;;;;5141072;27;19923;-85
2022/01/27 14:49:51;;;;;;;;;;;5.60;99.90;;;;;;5136759;27;19930;-80
2022/01/27 14:52:21;;;;;;;;;;;5.60;99.90;;;;;;5112074;28;19924;-79
2022/01/27 14:54:47;;;;;;;;;;;5.70;99.90;;;;;;5034467;28;19926;-81
2022/01/27 14:57:14;;;;;;;;;;;5.70;99.90;;;;;;4872222;29;19937;-83
2022/01/27 14:59:41;;;;;;;;;;;5.70;99.90;;;;;;4669841;30;19940;-82
2022/01/27 15:05:49;;;;;;;;;;;5.70;99.90;;;;;;5174515;27;19926;-85
2022/01/27 15:08:15;;;;;;;;;;;5.80;99.90;;;;;;5125062;27;19923;-84
2022/01/27 15:10:42;;;;;;;;;;;5.80;99.90;;;;;;5116829;27;19951;-83
2022/01/27 15:13:12;;;;;;;;;;;5.80;99.90;;;;;;5071273;28;19929;-84
2022/01/27 15:18:53;;;;;;;;;;;5.80;99.90;;;;;;4738884;29;19932;-82
2022/01/27 15:21:20;;;;;;;;;;;5.90;99.90;;;;;;4520035;30;19938;-85
2022/01/27 15:28:53;;;;;;;;;;;5.90;99.90;;;;;;5173998;27;19926;-81
2022/01/27 15:31:19;;;;;;;;;;;5.90;99.90;;;;;;5115575;27;19924;-82
2022/01/27 15:33:46;;;;;;;;;;;5.90;99.90;;;;;;5090382;27;19939;-83
2022/01/27 15:36:13;;;;;;;;;;;6.00;99.90;;;;;;5076567;28;19924;-82
2022/01/27 15:38:40;;;;;;;;;;;6.00;99.90;;;;;;4970006;28;19927;-80
2022/01/27 15:41:08;;;;;;;;;;;6.00;99.90;;;;;;4787832;29;19931;-82
2022/01/27 15:43:35;;;;;;;;;;;6.00;99.90;;;;;;4572509;30;19955;-85
2022/01/27 15:51:08;;;;;;;;;;;6.10;99.90;;;;;;5169512;27;19927;-83
2022/01/27 15:53:35;;;;;;;;;;;6.10;99.90;;;;;;5117590;27;19923;-81
2022/01/27 15:56:01;;;;;;;;;;;6.10;99.90;;;;;;5118651;27;19932;-81
2022/01/27 15:58:28;;;;;;;;;;;6.10;99.90;;;;;;5050803;28;19932;-81
2022/01/27 16:00:55;;;;;;;;;;;6.20;99.90;;;;;;4960649;28;19935;-85
2022/01/27 16:03:22;;;;;;;;;;;6.10;99.90;;;;;;4818501;29;19932;-83
2022/01/27 16:05:49;;;;;;;;;;;6.20;99.90;;;;;;4623573;30;19922;-82
2022/01/27 16:13:20;;;;;;;;;;;6.20;99.90;;;;;;5181704;27;19925;-82
2022/01/27 16:15:47;;;;;;;;;;;6.10;99.90;;;;;;5137752;27;19930;-84
2022/01/27 16:18:13;;;;;;;;;;;6.10;99.90;;;;;;5136429;27;19970;-82
2022/01/27 16:20:41;;;;;;;;;;;6.20;99.90;;;;;;5126328;27;19924;-88
2022/01/27 16:23:08;;;;;;;;;;;6.00;99.90;;;;;;5080929;28;19929;-90
2022/01/27 16:25:35;;;;;;;;;;;6.00;99.90;;;;;;4872372;28;19934;-89
2022/01/27 16:28:01;;;;;;;;;;;6.00;99.90;;;;;;4660033;30;19918;-89
2022/01/27 16:35:34;;;;;;;;;;;6.00;99.90;;;;;;5175540;27;19927;-84
2022/01/27 16:38:01;;;;;;;;;;;6.10;99.90;;;;;;5136733;27;19930;-86
2022/01/27 16:40:28;;;;;;;;;;;6.10;99.90;;;;;;5116396;27;19954;-86
2022/01/27 16:42:59;;;;;;;;;;;6.10;99.90;;;;;;5084920;28;19925;-86
2022/01/27 16:45:26;;;;;;;;;;;6.10;99.90;;;;;;4987030;28;19935;-85
2022/01/27 16:47:52;;;;;;;;;;;6.20;99.90;;;;;;4770594;29;19932;-84
2022/01/27 16:50:19;;;;;;;;;;;6.30;99.90;;;;;;4556736;30;19935;-87
2022/01/27 16:55:33;;;;;;;;;;;6.30;99.90;;;;;;5153325;27;19942;-85
2022/01/27 16:58:00;;;;;;;;;;;6.30;99.90;;;;;;5115745;27;19924;-83
2022/01/27 17:00:27;;;;;;;;;;;6.40;99.90;;;;;;5119913;27;19938;-87
2022/01/27 17:02:53;;;;;;;;;;;6.40;99.90;;;;;;5106245;28;19924;-83
2022/01/27 17:05:20;;;;;;;;;;;6.40;99.90;;;;;;4985376;28;19935;-83
2022/01/27 17:07:47;;;;;;;;;;;6.40;99.90;;;;;;4771431;29;19938;-83
2022/01/27 17:10:14;;;;;;;;;;;6.40;99.90;;;;;;4418672;30;19947;-85
2022/01/27 17:17:48;;;;;;;;;;;6.40;99.90;;;;;;5176676;27;19926;-82
2022/01/27 17:20:15;;;;;;;;;;;6.40;99.90;;;;;;5121754;27;19923;-81
2022/01/27 17:22:42;;;;;;;;;;;6.40;99.90;;;;;;5138759;27;19923;-82
2022/01/27 17:25:11;;;;;;;;;;;6.40;99.90;;;;;;5109492;28;20002;-84
2022/01/27 17:27:40;;;;;;;;;;;6.40;99.90;;;;;;4991253;28;19934;-82
2022/01/27 17:30:08;;;;;;;;;;;6.40;99.90;;;;;;4809167;29;19953;-81
2022/01/27 17:32:36;;;;;;;;;;;6.40;99.90;;;;;;4629699;30;19934;-85
2022/01/27 17:39:31;;;;;;;;;;;6.40;99.90;;;;;;5177014;27;19926;-82
2022/01/27 17:42:02;;;;;;;;;;;6.40;99.90;;;;;;5128870;27;19923;-84
2022/01/27 17:44:34;;;;;;;;;;;6.40;99.90;;;;;;5094716;28;19947;-82
2022/01/27 17:47:01;;;;;;;;;;;6.30;99.90;;;;;;4988530;28;19927;-86
2022/01/27 17:49:28;;;;;;;;;;;6.40;99.90;;;;;;4903565;29;19929;-86
2022/01/27 17:51:54;;;;;;;;;;;6.40;99.90;;;;;;4727162;29;20037;-87
2022/01/27 17:54:21;;;;;;;;;;;6.40;99.90;;;;;;4475859;30;20114;-84
2022/01/27 18:01:44;;;;;;;;;;;6.30;99.90;;;;;;5165037;27;19926;-84
2022/01/27 18:04:11;;;;;;;;;;;6.30;99.90;;;;;;5103328;27;19931;-86
2022/01/27 18:06:38;;;;;;;;;;;6.30;99.90;;;;;;5107165;28;19932;-82
2022/01/27 18:09:05;;;;;;;;;;;6.30;99.90;;;;;;5043798;28;19937;-83
2022/01/27 18:11:34;;;;;;;;;;;6.30;99.90;;;;;;4949780;28;19931;-82
2022/01/27 18:14:02;;;;;;;;;;;6.30;99.90;;;;;;4787262;29;19934;-83
2022/01/27 18:16:30;;;;;;;;;;;6.30;99.90;;;;;;4484914;30;19944;-85
2022/01/27 18:24:01;;;;;;;;;;;6.30;99.90;;;;;;5175837;27;19926;-90
2022/01/27 18:26:28;;;;;;;;;;;6.30;99.90;;;;;;5153144;27;19929;-83
2022/01/27 18:28:54;;;;;;;;;;;6.30;99.90;;;;;;5153080;27;19941;-82
2022/01/27 18:31:21;;;;;;;;;;;6.30;99.90;;;;;;5126415;28;19950;-83
2022/01/27 18:33:48;;;;;;;;;;;6.30;99.90;;;;;;5087264;28;19931;-86
2022/01/27 18:36:14;;;;;;;;;;;6.30;99.90;;;;;;4990096;28;19946;-85
2022/01/27 18:38:41;;;;;;;;;;;6.30;99.90;;;;;;4767759;29;19940;-84
2022/01/27 18:44:44;;;;;;;;;;;6.30;99.90;;;;;;5175593;27;19926;-83
2022/01/27 18:47:11;;;;;;;;;;;6.40;99.90;;;;;;5142162;27;19923;-84
2022/01/27 18:49:38;;;;;;;;;;;6.40;99.90;;;;;;5127642;28;19943;-83
2022/01/27 18:52:05;;;;;;;;;;;6.30;99.90;;;;;;5049059;28;19925;-84
2022/01/27 18:54:35;;;;;;;;;;;6.20;99.90;;;;;;4998949;28;19956;-83
2022/01/27 18:57:01;;;;;;;;;;;6.10;99.90;;;;;;4842698;29;19929;-82
2022/01/27 18:59:32;;;;;;;;;;;6.00;99.90;;;;;;4621703;30;19934;-82
2022/01/27 19:07:05;;;;;;;;;;;5.80;99.90;;;;;;5174503;27;19925;-85
2022/01/27 19:09:35;;;;;;;;;;;5.70;99.90;;;;;;5138360;27;19930;-81